Time;durP1;ratioP1;P1;durP2;ratioP2;P2;SDS_P1;SDS_P2;PMS_P1;PMS_P2;Temp;Humidity;BMP_temperature;BMP_pressure;BME280_temperature;BME280_humidity;BME280_pressure;Samples;Min_cycle;Max_cycle;Signal;HPM_P1;HPM_P2
2022/02/10 00:21:04;;;;;;;32.13;10.87;;;7.20;99.90;;;;;;4989768;28;20539;-69
2022/02/10 00:36:57;;;;;;;11.30;5.77;;;7.10;99.90;;;;;;4988443;28;20550;-69
2022/02/10 00:41:49;;;;;;;5.97;4.37;;;7.10;99.90;;;;;;4985959;28;20486;-69
2022/02/10 00:44:15;;;;;;;7.67;4.37;;;7.10;99.90;;;;;;4987835;28;20468;-68
2022/02/10 00:46:41;;;;;;;5.37;4.80;;;7.00;99.90;;;;;;4995718;28;20218;-70
2022/02/10 00:49:08;;;;;;;6.50;3.90;;;7.00;99.90;;;;;;4967137;28;20476;-70
2022/02/10 00:51:34;;;;;;;6.23;3.90;;;6.90;99.90;;;;;;4980209;28;20222;-70
2022/02/10 00:54:00;;;;;;;6.50;3.80;;;6.90;99.90;;;;;;4984835;28;20462;-69
2022/02/10 00:56:25;;;;;;;5.53;3.80;;;6.90;99.90;;;;;;4985699;28;20483;-69
2022/02/10 00:59:10;;;;;;;5.90;4.27;;;6.80;99.90;;;;;;4964247;28;20292;-69
2022/02/10 01:07:12;;;;;;;3.93;3.20;;;6.70;99.90;;;;;;4982315;28;20449;-70
2022/02/10 01:31:15;;;;;;;8.23;3.97;;;6.40;99.90;;;;;;4984180;28;20454;-70
2022/02/10 01:33:42;;;;;;;6.77;3.50;;;6.50;99.90;;;;;;4969063;28;20450;-70
2022/02/10 01:36:08;;;;;;;5.93;3.60;;;6.50;99.90;;;;;;4983273;28;20613;-70
2022/02/10 01:38:34;;;;;;;4.80;3.40;;;6.50;99.90;;;;;;4993724;28;20536;-69
2022/02/10 02:05:39;;;;;;;7.53;4.77;;;6.30;99.90;;;;;;4984217;28;20472;-69
2022/02/10 02:08:07;;;;;;;5.57;4.27;;;6.30;99.90;;;;;;4987558;28;20962;-71
2022/02/10 02:10:33;;;;;;;7.60;4.60;;;6.30;99.90;;;;;;4977014;28;20492;-69
2022/02/10 02:13:00;;;;;;;4.43;3.87;;;6.30;99.90;;;;;;4994419;28;22875;-68
2022/02/10 02:15:26;;;;;;;10.10;4.30;;;6.20;99.90;;;;;;4964204;28;20470;-71
2022/02/10 02:17:52;;;;;;;6.50;3.83;;;6.20;99.90;;;;;;4982029;28;20515;-69
2022/02/10 02:20:17;;;;;;;4.50;3.70;;;6.20;99.90;;;;;;4997483;28;20639;-69
2022/02/10 02:22:43;;;;;;;4.83;3.77;;;6.20;99.90;;;;;;4983871;28;20277;-68
2022/02/10 02:25:09;;;;;;;4.30;3.63;;;6.20;99.90;;;;;;4973298;28;20222;-69
2022/02/10 02:27:49;;;;;;;5.47;3.83;;;6.10;99.90;;;;;;4991434;28;20218;-69
2022/02/10 02:30:27;;;;;;;3.60;3.30;;;6.00;99.90;;;;;;4982633;28;20448;-70
2022/02/10 03:05:38;;;;;;;3.93;3.37;;;5.80;99.90;;;;;;4979657;28;20454;-69
2022/02/10 03:08:12;;;;;;;4.47;3.80;;;5.70;99.90;;;;;;4984917;28;20449;-69
2022/02/10 03:10:58;;;;;;;;;;;;;;;;;;;;;
2022/02/10 03:13:06;;;;;;;6.20;3.70;;;5.70;99.90;;;;;;4980414;28;20544;-69
2022/02/10 03:15:42;;;;;;;8.57;4.13;;;5.70;99.90;;;;;;4975722;28;20281;-68
2022/02/10 03:18:25;;;;;;;;;;;;;;;;;;;;;
2022/02/10 04:14:34;;;;;;;4.40;3.60;;;5.30;99.90;;;;;;4978359;28;20237;-69
2022/02/10 04:22:28;;;;;;;7.13;4.40;;;5.20;99.90;;;;;;4994278;28;20491;-69
2022/02/10 04:26:10;;;;;;;4.40;3.53;;;5.10;99.90;;;;;;4986823;28;20470;-69
2022/02/10 05:00:19;;;;;;;6.53;3.63;;;5.00;99.90;;;;;;4983428;28;20507;-68
2022/02/10 05:03:12;;;;;;;8.10;4.10;;;5.00;99.90;;;;;;4980339;28;20457;-69
2022/02/10 05:08:08;;;;;;;4.30;3.87;;;5.00;99.90;;;;;;4984859;28;20458;-69
2022/02/10 05:32:03;;;;;;;7.00;4.20;;;4.90;99.90;;;;;;4982420;28;20466;-69
2022/02/10 05:34:29;;;;;;;7.97;4.30;;;4.90;99.90;;;;;;4990912;28;20453;-69
2022/02/10 05:36:57;;;;;;;6.47;4.20;;;4.90;99.90;;;;;;4977651;28;20560;-68
2022/02/10 05:39:26;;;;;;;6.73;3.60;;;4.90;99.90;;;;;;4982891;28;20515;-69
2022/02/10 05:44:34;;;;;;;;;;;;;;;;;;;;;
2022/02/10 06:01:01;;;;;;;5.73;3.90;;;4.50;99.90;;;;;;4979623;28;20522;-69
2022/02/10 06:52:30;;;;;;;;;;;;;;;;;;;;;
2022/02/10 06:57:48;;;;;;;7.87;5.13;;;5.00;99.90;;;;;;4997103;28;20987;-69
2022/02/10 07:08:08;;;;;;;5.50;4.97;;;5.10;99.90;;;;;;5003916;28;20236;-70
2022/02/10 07:54:13;;;;;;;8.70;5.10;;;5.50;99.90;;;;;;5009543;28;21032;-69
2022/02/10 07:57:00;;;;;;;12.73;5.70;;;5.50;99.90;;;;;;5010201;28;20240;-68
2022/02/10 08:29:09;;;;;;;8.70;5.47;;;5.60;99.90;;;;;;5009363;28;20444;-68
2022/02/10 08:55:06;;;;;;;;;;;;;;;;;;;;;
2022/02/10 09:05:35;;;;;;;10.20;7.07;;;6.00;99.90;;;;;;4984472;28;20665;-70
2022/02/10 09:08:35;;;;;;;13.00;7.30;;;6.00;99.90;;;;;;4982799;28;21003;-70
2022/02/10 09:19:01;;;;;;;13.63;7.70;;;6.20;99.90;;;;;;4991504;28;20488;-70
2022/02/10 09:54:39;;;;;;;14.67;6.83;;;6.50;99.90;;;;;;4987315;28;20514;-70
2022/02/10 10:01:41;;;;;;;12.80;7.33;;;6.60;99.90;;;;;;4999526;28;20460;-70
2022/02/10 10:04:14;;;;;;;12.10;7.30;;;6.60;99.90;;;;;;4982219;28;20488;-70
2022/02/10 10:24:11;;;;;;;8.90;6.10;;;6.70;99.90;;;;;;4990692;28;20555;-70
2022/02/10 10:57:18;;;;;;;18.80;16.80;;;7.00;99.90;;;;;;4991513;28;20469;-71
2022/02/10 11:36:46;;;;;;;7.37;5.90;;;7.50;99.90;;;;;;4986955;28;20473;-69
2022/02/10 11:40:04;;;;;;;7.40;4.40;;;7.50;99.90;;;;;;4988500;28;20472;-71
2022/02/10 12:34:43;;;;;;;;;;;;;;;;;;;;;
2022/02/10 12:39:23;;;;;;;3.40;3.07;;;8.00;99.90;;;;;;4972854;28;20938;-71
2022/02/10 13:23:59;;;;;;;8.50;4.80;;;8.20;99.90;;;;;;4986043;28;20464;-69
2022/02/10 14:11:01;;;;;;;8.73;4.40;;;8.40;99.90;;;;;;4985209;28;20511;-70
2022/02/10 14:16:35;;;;;;;7.00;4.47;;;8.30;99.90;;;;;;4984840;28;20525;-69
2022/02/10 14:19:01;;;;;;;8.47;4.00;;;8.30;99.90;;;;;;4999895;28;21031;-69
2022/02/10 14:21:33;;;;;;;7.70;4.50;;;8.20;99.90;;;;;;4985195;28;20461;-71
2022/02/10 14:26:32;;;;;;;;;;;;;;;;;;;;;
2022/02/10 14:28:50;;;;;;;7.00;4.77;;;8.20;99.90;;;;;;4995627;28;20213;-68
2022/02/10 14:31:16;;;;;;;6.70;4.07;;;8.20;99.90;;;;;;4987534;28;20692;-69
2022/02/10 14:33:42;;;;;;;7.73;5.43;;;8.20;99.90;;;;;;4985175;28;20222;-70
2022/02/10 15:15:25;;;;;;;22.53;15.20;;;8.20;99.90;;;;;;4993257;28;21090;-68
2022/02/10 16:11:36;;;;;;;8.10;5.17;;;8.10;99.90;;;;;;4987947;28;20469;-69
2022/02/10 16:17:04;;;;;;;10.57;5.60;;;8.00;99.90;;;;;;4994537;28;20579;-70
2022/02/10 16:19:23;;;;;;;10.90;6.23;;;8.00;99.90;;;;;;4976678;28;20457;-69
2022/02/10 16:22:01;;;;;;;12.17;6.77;;;8.00;99.90;;;;;;4982141;28;21024;-68
2022/02/10 16:24:31;;;;;;;6.20;5.23;;;8.00;99.90;;;;;;4985968;28;20452;-69
2022/02/10 16:27:12;;;;;;;12.33;5.93;;;7.90;99.90;;;;;;4998427;28;20462;-69
2022/02/10 16:29:38;;;;;;;15.77;7.27;;;8.00;99.90;;;;;;4984959;28;20498;-69
2022/02/10 16:32:05;;;;;;;10.97;6.10;;;8.00;99.90;;;;;;4988738;28;20492;-69
2022/02/10 16:34:31;;;;;;;14.33;6.70;;;8.00;99.90;;;;;;4982656;28;20470;-69
2022/02/10 16:36:56;;;;;;;10.40;6.13;;;8.00;99.90;;;;;;4973219;28;20478;-69
2022/02/10 16:39:22;;;;;;;9.13;6.20;;;7.90;99.90;;;;;;4984264;28;20219;-69
2022/02/10 16:41:51;;;;;;;13.30;6.90;;;7.90;99.90;;;;;;4982833;28;20305;-69
2022/02/10 16:44:18;;;;;;;11.97;6.30;;;7.80;99.90;;;;;;4978170;28;20469;-69
2022/02/10 16:46:44;;;;;;;8.60;6.17;;;7.80;99.90;;;;;;4980331;28;20484;-68
2022/02/10 16:49:09;;;;;;;20.73;10.70;;;7.70;99.90;;;;;;4987532;28;20508;-70
2022/02/10 16:51:38;;;;;;;21.00;13.93;;;7.70;99.90;;;;;;4969919;28;20476;-69
2022/02/10 16:54:15;;;;;;;28.03;16.63;;;7.60;99.90;;;;;;4987881;28;20268;-69
2022/02/10 16:57:02;;;;;;;38.73;20.40;;;7.60;99.90;;;;;;4989533;28;20481;-69
2022/02/10 17:02:28;;;;;;;106.30;47.63;;;7.60;99.90;;;;;;4993155;28;20563;-69
2022/02/10 17:28:39;;;;;;;147.43;65.10;;;7.60;99.90;;;;;;4982714;28;20529;-69
2022/02/10 17:33:39;;;;;;;94.77;39.90;;;7.60;99.90;;;;;;4988983;28;20540;-69
2022/02/10 17:36:16;;;;;;;39.30;21.80;;;7.70;99.90;;;;;;4968373;28;20470;-69
2022/02/10 17:46:52;;;;;;;11.60;6.50;;;7.60;99.90;;;;;;4988231;28;20990;-69
2022/02/10 17:54:39;;;;;;;10.20;6.00;;;7.50;99.90;;;;;;4990037;28;20455;-70
2022/02/10 17:57:05;;;;;;;6.60;4.73;;;7.40;99.90;;;;;;4976775;28;20951;-69
2022/02/10 17:59:33;;;;;;;7.70;5.60;;;7.40;99.90;;;;;;4980476;28;20456;-68
2022/02/10 18:01:59;;;;;;;9.30;4.97;;;7.40;99.90;;;;;;4985946;28;20249;-68
2022/02/10 18:04:25;;;;;;;10.93;6.97;;;7.40;99.90;;;;;;4960390;28;20493;-69
2022/02/10 18:06:56;;;;;;;10.50;7.10;;;7.40;99.90;;;;;;4969767;28;20532;-68
2022/02/10 18:09:55;;;;;;;8.40;5.80;;;7.40;99.90;;;;;;4987700;28;20233;-69
2022/02/10 18:17:23;;;;;;;14.77;7.90;;;7.40;99.90;;;;;;4988801;28;20841;-69
2022/02/10 18:19:59;;;;;;;22.93;13.10;;;7.30;99.90;;;;;;4984693;28;20586;-69
2022/02/10 19:10:35;;;;;;;8.50;7.10;;;7.20;99.90;;;;;;4988738;28;21038;-69
2022/02/10 19:13:01;;;;;;;11.10;7.10;;;7.20;99.90;;;;;;4981769;28;20454;-70
2022/02/10 19:15:34;;;;;;;11.40;7.03;;;7.20;99.90;;;;;;4977427;28;20469;-69
2022/02/10 19:18:02;;;;;;;8.60;7.13;;;7.30;99.90;;;;;;4974050;28;20468;-69
2022/02/10 19:20:28;;;;;;;12.43;7.07;;;7.30;99.90;;;;;;4990634;28;20446;-68
2022/02/10 19:22:54;;;;;;;10.20;8.00;;;7.30;99.90;;;;;;4960195;28;20460;-68
2022/02/10 19:25:21;;;;;;;12.40;6.47;;;7.30;99.90;;;;;;4979261;28;20441;-70
2022/02/10 19:27:50;;;;;;;11.47;7.70;;;7.30;99.90;;;;;;4990613;28;20222;-69
2022/02/10 19:30:20;;;;;;;48.10;24.07;;;7.30;99.90;;;;;;4991707;28;20500;-70
2022/02/10 19:32:54;;;;;;;35.87;19.60;;;7.20;99.90;;;;;;4986486;28;20474;-69
2022/02/10 19:35:23;;;;;;;38.23;18.63;;;7.20;99.90;;;;;;5003757;28;20534;-69
2022/02/10 19:37:56;;;;;;;126.07;41.93;;;7.20;99.90;;;;;;4992281;28;20498;-68
2022/02/10 19:40:23;;;;;;;103.10;39.77;;;7.20;99.90;;;;;;4976504;28;20453;-68
2022/02/10 19:42:50;;;;;;;90.10;38.20;;;7.10;99.90;;;;;;4988878;28;20472;-69
2022/02/10 19:45:16;;;;;;;58.40;27.73;;;7.10;99.90;;;;;;5005411;28;20465;-69
2022/02/10 19:47:42;;;;;;;39.17;20.60;;;7.10;99.90;;;;;;4990476;28;20460;-69
2022/02/10 19:50:13;;;;;;;22.57;12.23;;;7.10;99.90;;;;;;4985145;28;20234;-69
2022/02/10 19:52:42;;;;;;;14.90;9.77;;;7.10;99.90;;;;;;4982551;28;20462;-69
2022/02/10 19:55:14;;;;;;;18.67;10.80;;;7.00;99.90;;;;;;4981606;28;20523;-70
2022/02/10 19:57:41;;;;;;;16.60;9.83;;;7.00;99.90;;;;;;4989429;28;21015;-69
2022/02/10 20:00:16;;;;;;;21.37;12.17;;;7.00;99.90;;;;;;4990705;28;20485;-69
2022/02/10 20:02:42;;;;;;;20.37;11.97;;;6.90;99.90;;;;;;4990431;28;20497;-69
2022/02/10 20:05:08;;;;;;;28.73;17.00;;;7.00;99.90;;;;;;4980884;28;20524;-69
2022/02/10 20:07:37;;;;;;;47.37;21.20;;;7.00;99.90;;;;;;4995227;28;20222;-69
2022/02/10 20:10:05;;;;;;;40.40;19.60;;;7.00;99.90;;;;;;4989292;28;20449;-67
2022/02/10 20:12:31;;;;;;;55.40;26.80;;;6.90;99.90;;;;;;4967526;28;20477;-69
2022/02/10 20:14:57;;;;;;;80.70;32.07;;;6.90;99.90;;;;;;4986916;28;20489;-69
2022/02/10 20:17:22;;;;;;;68.70;28.70;;;6.90;99.90;;;;;;4977999;28;20280;-68
2022/02/10 20:19:48;;;;;;;51.37;24.63;;;6.90;99.90;;;;;;4973770;28;20589;-68
2022/02/10 20:22:14;;;;;;;36.40;16.70;;;6.90;99.90;;;;;;4989404;28;20249;-69
2022/02/10 20:24:41;;;;;;;18.07;11.17;;;6.90;99.90;;;;;;4986893;28;20222;-69
2022/02/10 20:27:07;;;;;;;14.27;8.27;;;6.90;99.90;;;;;;4979176;28;20472;-70
2022/02/10 20:29:33;;;;;;;14.00;8.00;;;6.90;99.90;;;;;;4963994;28;20540;-69
2022/02/10 20:31:59;;;;;;;11.50;8.20;;;6.90;99.90;;;;;;4978361;28;20461;-69
2022/02/10 20:34:26;;;;;;;15.47;8.37;;;6.90;99.90;;;;;;4986595;28;20453;-69
2022/02/10 20:36:52;;;;;;;15.77;8.70;;;6.80;99.90;;;;;;4988656;28;20376;-69
2022/02/10 20:39:25;;;;;;;15.37;8.37;;;6.80;99.90;;;;;;4986863;28;20544;-70
2022/02/10 20:41:53;;;;;;;13.20;8.00;;;6.80;99.90;;;;;;4990420;28;20236;-69
2022/02/10 20:44:19;;;;;;;13.73;7.90;;;6.80;99.90;;;;;;4989824;28;20465;-69
2022/02/10 20:46:49;;;;;;;14.67;8.03;;;6.80;99.90;;;;;;4989695;28;20540;-69
2022/02/10 20:49:17;;;;;;;13.00;8.30;;;6.80;99.90;;;;;;4988978;28;20533;-69
2022/02/10 20:51:50;;;;;;;13.40;8.30;;;6.70;99.90;;;;;;4969742;28;20456;-69
2022/02/10 20:54:17;;;;;;;14.40;8.30;;;6.70;99.90;;;;;;4968465;28;20513;-69
2022/02/10 20:56:45;;;;;;;18.17;7.30;;;6.70;99.90;;;;;;4979012;28;20997;-69
2022/02/10 20:59:35;;;;;;;14.67;8.73;;;6.70;99.90;;;;;;4989136;28;20460;-69
2022/02/10 21:02:09;;;;;;;12.47;8.37;;;6.70;99.90;;;;;;4979535;28;20461;-69
2022/02/10 21:04:50;;;;;;;22.93;12.23;;;6.70;99.90;;;;;;4996156;28;20549;-69
2022/02/10 21:07:23;;;;;;;43.17;26.60;;;6.70;99.90;;;;;;4977729;28;20548;-69
2022/02/10 21:10:12;;;;;;;66.40;32.63;;;6.70;99.90;;;;;;4980772;28;20556;-69
2022/02/10 21:12:41;;;;;;;47.10;26.47;;;6.70;99.90;;;;;;4987571;28;20450;-69
2022/02/10 21:15:11;;;;;;;29.40;16.83;;;6.70;99.90;;;;;;4985889;28;20449;-69
2022/02/10 21:17:37;;;;;;;18.73;10.20;;;6.80;99.90;;;;;;4976032;28;20469;-69
2022/02/10 21:20:05;;;;;;;17.40;8.40;;;6.80;99.90;;;;;;4970538;28;20464;-69
2022/02/10 21:22:36;;;;;;;12.50;9.00;;;6.70;99.90;;;;;;4970274;28;20222;-69
2022/02/10 21:25:10;;;;;;;10.50;7.97;;;6.70;99.90;;;;;;4985280;28;20524;-69
2022/02/10 21:30:09;;;;;;;10.47;7.17;;;6.80;99.90;;;;;;4981485;28;20541;-70
2022/02/10 21:32:45;;;;;;;14.47;8.90;;;6.80;99.90;;;;;;4980580;28;20454;-69
2022/02/10 21:38:24;;;;;;;13.43;7.97;;;6.80;99.90;;;;;;4982462;28;20469;-69
2022/02/10 22:09:41;;;;;;;11.73;7.57;;;6.60;99.90;;;;;;4989432;28;20457;-69
2022/02/10 22:20:18;;;;;;;12.07;7.50;;;6.50;99.90;;;;;;4974369;28;20468;-70
2022/02/10 22:23:04;;;;;;;16.60;8.80;;;6.50;99.90;;;;;;4989476;28;20458;-69
2022/02/10 22:25:30;;;;;;;17.97;7.43;;;6.50;99.90;;;;;;4978723;28;20452;-70
2022/02/10 22:28:01;;;;;;;12.30;7.87;;;6.50;99.90;;;;;;4999600;28;20452;-70
2022/02/10 22:30:41;;;;;;;12.50;7.60;;;6.50;99.90;;;;;;4993712;28;20225;-70
2022/02/10 22:33:24;;;;;;;12.63;6.50;;;6.50;99.90;;;;;;5003119;28;20867;-71
2022/02/10 22:35:51;;;;;;;9.87;6.30;;;6.50;99.90;;;;;;4993200;28;20465;-70
2022/02/10 22:38:21;;;;;;;13.83;7.43;;;6.50;99.90;;;;;;4994893;28;20460;-70
2022/02/10 22:41:08;;;;;;;11.63;6.77;;;6.50;99.90;;;;;;4973215;28;20460;-69
2022/02/10 22:43:34;;;;;;;14.67;8.40;;;6.50;99.90;;;;;;4994620;28;20443;-70
2022/02/10 22:46:00;;;;;;;13.83;8.17;;;6.50;99.90;;;;;;5001015;28;20449;-69
2022/02/10 22:48:26;;;;;;;13.10;7.77;;;6.50;99.90;;;;;;4992083;28;20441;-70
2022/02/10 22:50:52;;;;;;;14.10;7.27;;;6.50;99.90;;;;;;4989002;28;20453;-70
2022/02/10 22:53:18;;;;;;;12.63;6.73;;;6.50;99.90;;;;;;4981314;28;20606;-70
2022/02/10 22:55:44;;;;;;;13.97;7.37;;;6.50;99.90;;;;;;4992848;28;20225;-70
2022/02/10 22:58:09;;;;;;;13.60;7.50;;;6.40;99.90;;;;;;4994816;28;20244;-70
2022/02/10 23:00:37;;;;;;;11.53;7.40;;;6.40;99.90;;;;;;4989863;28;20202;-70
2022/02/10 23:03:03;;;;;;;15.40;7.50;;;6.40;99.90;;;;;;5013471;28;20566;-70
2022/02/10 23:05:29;;;;;;;9.83;7.87;;;6.40;99.90;;;;;;4994064;28;20455;-70
2022/02/10 23:07:58;;;;;;;12.20;7.50;;;6.40;99.90;;;;;;5012989;28;20484;-70
2022/02/10 23:13:13;;;;;;;13.90;7.40;;;6.30;99.90;;;;;;5010982;28;20448;-70
2022/02/10 23:15:39;;;;;;;11.87;7.40;;;6.30;99.90;;;;;;4989156;28;21037;-70
2022/02/10 23:18:06;;;;;;;17.70;8.90;;;6.30;99.90;;;;;;4990828;28;20466;-69
2022/02/10 23:20:32;;;;;;;10.10;6.70;;;6.30;99.90;;;;;;5011503;28;20221;-70
2022/02/10 23:22:58;;;;;;;15.40;7.20;;;6.30;99.90;;;;;;4991163;28;20445;-70
2022/02/10 23:25:26;;;;;;;10.20;6.73;;;6.30;99.90;;;;;;4990727;28;20456;-70
2022/02/10 23:27:52;;;;;;;9.43;5.97;;;6.30;99.90;;;;;;4966588;28;20226;-70
2022/02/10 23:30:22;;;;;;;11.63;6.37;;;6.30;99.90;;;;;;4975289;28;20453;-69
2022/02/10 23:32:48;;;;;;;8.73;6.60;;;6.30;99.90;;;;;;4997854;28;20449;-70
2022/02/10 23:36:16;;;;;;;8.83;5.57;;;6.30;99.90;;;;;;4990593;28;20912;-70
2022/02/10 23:38:00;;;;;;;8.77;5.40;;;6.30;99.90;;;;;;4991035;28;20864;-69
2022/02/10 23:40:36;;;;;;;5.93;4.50;;;6.40;99.90;;;;;;4990295;28;20453;-69
2022/02/10 23:43:03;;;;;;;6.53;3.10;;;6.40;99.90;;;;;;5003788;28;20217;-71
2022/02/10 23:45:29;;;;;;;1.57;1.47;;;6.40;99.90;;;;;;4991225;28;20845;-70
2022/02/10 23:47:54;;;;;;;2.07;1.10;;;6.40;99.90;;;;;;4972069;28;20458;-70
2022/02/10 23:50:26;;;;;;;1.00;0.80;;;6.40;99.90;;;;;;4971283;28;20241;-69
2022/02/10 23:52:55;;;;;;;0.50;0.50;;;6.30;99.90;;;;;;4991961;28;20260;-70
2022/02/10 23:55:29;;;;;;;1.07;0.90;;;6.30;99.90;;;;;;4990329;28;20456;-70
2022/02/10 23:58:20;;;;;;;0.80;0.80;;;6.30;99.90;;;;;;4977031;28;20534;-70
